My Meet Scores
Haley Podkul, Gym Kinetics Gymnastics - MyMeetScores.com
Top100 | Top Teams | Upcoming Meets | Completed Meets | Latest | Add Scores | Help| Support | Bookmark and Share

Haley Podkul, Gym Kinetics Gymnastics
Personal Bests
LevelVault BarsBeamFloorAA
XG9.3259.675 9.2259.40037.450
XS8.9509.650 9.3259.05036.275
Meet Scores
Date Meet Team Session Level Division Vault Bars Beam Floor AA
2020-02-21 Kinetic Classic Gym Kinetics Gymnastics 10 XG Older 9.325 21T 9.675 15T 9.125 26T 9.325 31T 37.450 13T
2020-01-31 Chow's Challenge Gym Kinetics Gymnastics B3 XG Sr B 9.175 4 9.425 5T 8.650 9 9.400 7 36.650 6
2020-01-17 2020 Bravo Classic Gym Kinetics Gymnastics 3A XG Sr 8.825 11 9.350 1 8.875 5 9.100 8 36.150 4
2020-01-10 Leenda's Island Adventure Gym Kinetics Gymnastics GG9 XG 13 & Over 8.825 5 9.475 5 8.700 7 9.150 5 36.150 6
2019-12-20 Aspire Classic - 2019 Gym Kinetics Gymnastics 9A XG Sr B 8.950 9 9.400 11T 9.000 8 9.300 12T 36.650 10T
2019-12-06 Ultimate Wish Classic Gym Kinetics Gymnastics 9 XG SR 8.550 11 9.250 5 9.150 5T 9.250 10T 36.200 7T
2019-04-05 2019 Illinois XG, XP, XD State Championships Gym Kinetics Gymnastics 5 XG Jr E 9.125 7 9.450 5T 8.250 22 9.150 14 35.975 16
2019-03-01 NGCD Academy's 2019 Flip'r Invitational Gym Kinetics Gymnastics 2 XG Jr B 9.150 4* 9.500 7T 9.050 12 9.125 13 36.825 5T
2019-02-23 Kinetic Classic 2019 Gym Kinetics Gymnastics 1 XG Younger 8.825 17 9.350 2T 8.700 17 9.000 14T 35.875 11
2019-02-08 Midwest Twisters Harley Meet Womens Gym Kinetics Gymnastics S02 XG 12 yrs. 9.300 1T 9.325 1T 9.075 5 9.050 9 36.750 3
2019-01-18 2019 Bravo Classic Gym Kinetics Gymnastics 1A XG Jr 8.475 12T 8.550 16 9.050 11T 8.925 14T 35.000 11
2019-01-11 St Jude Benefit Meet Gym Kinetics Gymnastics 4C XG Sr A 9.050 7 8.700 10 8.875 6 9.125 8 35.750 8
2018-12-14 2018 Aspire Classic Gym Kinetics Gymnastics 11A XG Middle 9.100 2T 9.200 7 8.400 17 9.175 10 35.875 8
2018-04-06 XCEL State Championships Gym Kinetics Gymnastics 1B XG Ch D 9.050 5 9.400 5T 8.850 12T 8.800 23 36.100 9T
2018-02-23 Kinetic Classic Gym Kinetics Gymnastics 6 XG Younger 9.050 28T 9.200 31T 7.750 81T 9.100 48 35.100 56
2018-02-03 Midwest Games Gym Kinetics Gymnastics 2 XG JR 8.850 5* 7.200 15 9.225 2 9.050 12 34.325 13T
2018-01-19 2018 Bravo Classic Gym Kinetics Gymnastics 1B XG Child 9.150 3 9.150 3 8.675 9 8.600 11 35.575 6
2017-12-15 2017 Aspire Classic Gym Kinetics Gymnastics 10B XG Jr A 9.100 1 9.050 4T 8.500 8 9.150 7T 35.800 2
2017-04-21 2017 Illinois Xcel State Championships Gym Kinetics Gymnastics 6 XS Ch D 8.950 5T 9.650 2T 9.325 8 7.750 28 35.675 23T
2017-02-24 Kinetic Classic Gym Kinetics Gymnastics 8 XS All Ages 8.700 24T 9.450 24T 9.075 48 9.050 25T 36.275 26
2017-01-13 St Jude Benefit Meet Gym Kinetics Gymnastics 6A XS Jr A 8.450 1T 9.500 5 9.050 9 8.875 6 35.875 4
Get your scores on
a t-shirt, pin, or hoodie